La Sardane — FO4883 — position and weather

sailwx.info

Track history (hours):
 
Tides and Currents Weather Stations Pressure Air Temp Water Temp Dewpoint Dewpoint Depression Visibility Wind Speed Wind Dir Waves Ship Positions

La Sardane

Last reported at 2017-Jan-18 21:03 UTC. Time now 2017-Jan-19 06:43 UTC.
Position N 48°06' W 004°19'.

Length 16 m.

Type: Fishing. MMSI: 227318010.

Date/timePositionNaut miles runAvg speedWind from/ knotsBaromVisibWave heightAir tempDewpointWater temp
2017-Jan-18 21:03N 48°06' W 004°19'0 0.0
2017-Jan-18 20:33N 48°06' W 004°19'0 0.0
2017-Jan-18 19:33N 48°06' W 004°19'4 3.6
2017-Jan-18 18:33N 48°09' W 004°19'0 0.3
2017-Jan-18 17:33N 48°10' W 004°19'2 2.1
2017-Jan-18 16:33N 48°08' W 004°19'2 0.2
2017-Jan-18 09:32N 48°06' W 004°19'0 0.0
2017-Jan-18 08:33N 48°06' W 004°19'0 0.0
2017-Jan-18 01:16N 48°06' W 004°19'0 0.0
2017-Jan-18 00:33N 48°06' W 004°20'1 1.3
2017-Jan-17 23:33N 48°07' W 004°19'2 2.5
2017-Jan-17 22:34N 48°10' W 004°19'0 0.4
2017-Jan-17 21:33N 48°09' W 004°19'1 1.1
2017-Jan-17 20:33N 48°09' W 004°18'5 5.4
2017-Jan-17 19:33N 48°12' W 004°25'1 1.1
2017-Jan-17 18:33N 48°13' W 004°26'0 0.4
2017-Jan-17 17:34N 48°13' W 004°25'3 2.5
2017-Jan-17 16:33N 48°10' W 004°26'6 6.1
2017-Jan-17 15:33N 48°06' W 004°19'0 0.0
2017-Jan-16 22:05N 48°06' W 004°19'0 0.0
2017-Jan-16 21:33N 48°06' W 004°19'4 4.3
2017-Jan-16 20:34N 48°10' W 004°23'5 5.2
2017-Jan-16 19:34N 48°14' W 004°28'1 0.6
2017-Jan-16 18:34N 48°13' W 004°28'2 2.5
2017-Jan-16 17:34N 48°11' W 004°27'2 1.6
2017-Jan-16 16:34N 48°09' W 004°26'6 5.6
2017-Jan-16 15:33N 48°06' W 004°19'0 0.0
2017-Jan-16 14:34N 48°06' W 004°19'0 0.0
2017-Jan-15 21:14N 48°06' W 004°19'0 0.1
2017-Jan-15 20:33N 48°06' W 004°19'2 2.1
2017-Jan-15 19:34N 48°07' W 004°22'7 7.1
2017-Jan-15 18:34N 48°12' W 004°30'0 0.1
2017-Jan-15 17:33N 48°12' W 004°30'4 4.1
2017-Jan-15 16:33N 48°09' W 004°25'5 5.1
2017-Jan-15 15:33N 48°06' W 004°19'0 0.0
2017-Jan-13 16:22N 48°06' W 004°19'0 0.0
2017-Jan-13 15:34N 48°06' W 004°19'0 0.1
2017-Jan-13 14:30N 48°06' W 004°20'0 0.0
2017-Jan-13 13:25N 48°06' W 004°20'0 0.0
2017-Jan-13 11:33N 48°06' W 004°20'0 0.0
2017-Jan-13 10:33N 48°06' W 004°20'0 0.0
2017-Jan-13 09:33N 48°06' W 004°20'0 0.0
2017-Jan-13 08:33N 48°06' W 004°20'0 0.0
2017-Jan-12 15:33N 48°06' W 004°20'0 0.0
2017-Jan-12 13:33N 48°06' W 004°20'0 0.0
2017-Jan-11 19:21N 48°06' W 004°20'0 0.1
2017-Jan-11 18:33N 48°06' W 004°20'3 3.0
2017-Jan-11 17:34N 48°08' W 004°23'0 0.4
2017-Jan-11 16:33N 48°08' W 004°22'3 0.1
2017-Jan-10 20:33N 48°06' W 004°19'0 0.0
2017-Jan-10 19:33N 48°06' W 004°19'3 2.8
2017-Jan-10 18:34N 48°08' W 004°22'7 6.6
2017-Jan-10 17:33N 48°13' W 004°29'3 2.9
2017-Jan-10 16:33N 48°11' W 004°25'7 6.6
2017-Jan-10 15:33N 48°06' W 004°19'0 0.0
2017-Jan-09 23:34N 48°06' W 004°19'0 0.0
2017-Jan-09 22:33N 48°06' W 004°19'4 4.3
2017-Jan-09 21:34N 48°09' W 004°24'5 5.1
2017-Jan-09 20:33N 48°13' W 004°29'1 1.3
2017-Jan-09 19:34N 48°14' W 004°28'1 0.6
2017-Jan-09 18:33N 48°13' W 004°29'1 0.5
2017-Jan-09 17:34N 48°13' W 004°29'6 6.1
2017-Jan-09 16:32N 48°09' W 004°22'4 0.2
2017-Jan-08 22:34N 48°06' W 004°19'0 0.0
2017-Jan-08 21:34N 48°06' W 004°19'  
Track history (hours):
 
Tides and Currents Weather Stations Pressure Air Temp Water Temp Dewpoint Dewpoint Depression Visibility Wind Speed Wind Dir Waves Ship Positions

La Sardane

Last reported at 2017-Jan-18 21:03 UTC. Time now 2017-Jan-19 06:43 UTC.
Position N 48°06' W 004°19'.

Length 16 m.

Type: Fishing. MMSI: 227318010.

Date/timePositionNaut miles runAvg speedWind from/ knotsBaromVisibWave heightAir tempDewpointWater temp
2017-Jan-18 21:03N 48°06' W 004°19'0 0.0
2017-Jan-18 20:33N 48°06' W 004°19'0 0.0
2017-Jan-18 19:33N 48°06' W 004°19'4 3.6
2017-Jan-18 18:33N 48°09' W 004°19'0 0.3
2017-Jan-18 17:33N 48°10' W 004°19'2 2.1
2017-Jan-18 16:33N 48°08' W 004°19'2 0.2
2017-Jan-18 09:32N 48°06' W 004°19'0 0.0
2017-Jan-18 08:33N 48°06' W 004°19'0 0.0
2017-Jan-18 01:16N 48°06' W 004°19'0 0.0
2017-Jan-18 00:33N 48°06' W 004°20'1 1.3
2017-Jan-17 23:33N 48°07' W 004°19'2 2.5
2017-Jan-17 22:34N 48°10' W 004°19'0 0.4
2017-Jan-17 21:33N 48°09' W 004°19'1 1.1
2017-Jan-17 20:33N 48°09' W 004°18'5 5.4
2017-Jan-17 19:33N 48°12' W 004°25'1 1.1
2017-Jan-17 18:33N 48°13' W 004°26'0 0.4
2017-Jan-17 17:34N 48°13' W 004°25'3 2.5
2017-Jan-17 16:33N 48°10' W 004°26'6 6.1
2017-Jan-17 15:33N 48°06' W 004°19'0 0.0
2017-Jan-16 22:05N 48°06' W 004°19'0 0.0
2017-Jan-16 21:33N 48°06' W 004°19'4 4.3
2017-Jan-16 20:34N 48°10' W 004°23'5 5.2
2017-Jan-16 19:34N 48°14' W 004°28'1 0.6
2017-Jan-16 18:34N 48°13' W 004°28'2 2.5
2017-Jan-16 17:34N 48°11' W 004°27'2 1.6
2017-Jan-16 16:34N 48°09' W 004°26'6 5.6
2017-Jan-16 15:33N 48°06' W 004°19'0 0.0
2017-Jan-16 14:34N 48°06' W 004°19'0 0.0
2017-Jan-15 21:14N 48°06' W 004°19'0 0.1
2017-Jan-15 20:33N 48°06' W 004°19'2 2.1
2017-Jan-15 19:34N 48°07' W 004°22'7 7.1
2017-Jan-15 18:34N 48°12' W 004°30'0 0.1
2017-Jan-15 17:33N 48°12' W 004°30'4 4.1
2017-Jan-15 16:33N 48°09' W 004°25'5 5.1
2017-Jan-15 15:33N 48°06' W 004°19'0 0.0
2017-Jan-13 16:22N 48°06' W 004°19'0 0.0
2017-Jan-13 15:34N 48°06' W 004°19'0 0.1
2017-Jan-13 14:30N 48°06' W 004°20'0 0.0
2017-Jan-13 13:25N 48°06' W 004°20'0 0.0
2017-Jan-13 11:33N 48°06' W 004°20'0 0.0
2017-Jan-13 10:33N 48°06' W 004°20'0 0.0
2017-Jan-13 09:33N 48°06' W 004°20'0 0.0
2017-Jan-13 08:33N 48°06' W 004°20'0 0.0
2017-Jan-12 15:33N 48°06' W 004°20'0 0.0
2017-Jan-12 13:33N 48°06' W 004°20'0 0.0
2017-Jan-11 19:21N 48°06' W 004°20'0 0.1
2017-Jan-11 18:33N 48°06' W 004°20'3 3.0
2017-Jan-11 17:34N 48°08' W 004°23'0 0.4
2017-Jan-11 16:33N 48°08' W 004°22'3 0.1
2017-Jan-10 20:33N 48°06' W 004°19'0 0.0
2017-Jan-10 19:33N 48°06' W 004°19'3 2.8
2017-Jan-10 18:34N 48°08' W 004°22'7 6.6
2017-Jan-10 17:33N 48°13' W 004°29'3 2.9
2017-Jan-10 16:33N 48°11' W 004°25'7 6.6
2017-Jan-10 15:33N 48°06' W 004°19'0 0.0
2017-Jan-09 23:34N 48°06' W 004°19'0 0.0
2017-Jan-09 22:33N 48°06' W 004°19'4 4.3
2017-Jan-09 21:34N 48°09' W 004°24'5 5.1
2017-Jan-09 20:33N 48°13' W 004°29'1 1.3
2017-Jan-09 19:34N 48°14' W 004°28'1 0.6
2017-Jan-09 18:33N 48°13' W 004°29'1 0.5
2017-Jan-09 17:34N 48°13' W 004°29'6 6.1
2017-Jan-09 16:32N 48°09' W 004°22'4 0.2
2017-Jan-08 22:34N 48°06' W 004°19'0 0.0
2017-Jan-08 21:34N 48°06' W 004°19'  

Dump ship's entire track history